EGHQ

Newquay Cornwall Airport

Newquay, United Kingdom
METAR EGHQ 241950Z 29011KT 8000 VCSH SCT004 SCT014 09/08 Q1012
Observed Flight Rules
Apr-24 @ 19:50 UTC (5 hours ago) Marginal Visual Flight Rules
Wind Visibility Clouds
290° at 11 knots 7,998 meters
  • Scattered at 400' AGL
  • Scattered at 1,400' AGL
Temperatures Readings
Current 9°C / 48°F
Dewpoint 8°C / 46°F
Humidity 94%
Altimeter 29.88" Hg
Pressure 1012 hPa
Elevation 119
METAR EGHQ 241950Z 29011KT 8000 VCSH SCT004 SCT014 09/08 Q1012
Observed Flight Rules
Apr-24 @ 19:50 UTC
(5 hours ago)
MVFR
Wind Visibility
290° at 11 knots 7,998 meters
Clouds
  • Scattered at 400' AGL
  • Scattered at 1,400' AGL
Temperature Dewpoint
9°C / 48°F 8°C / 46°F
Humidity Altimeter Pressure
94% 29.88" Hg 1012 hPa